sensor_id;sensor_type;location;lat;lon;timestamp;P1;durP1;ratioP1;P2;durP2;ratioP2
76745;SDS011;65671;49.976;20.038;2023-07-13T00:01:27;8.38;;;5.78;;
76745;SDS011;65671;49.976;20.038;2023-07-13T00:03:53;7.85;;;5.70;;
76745;SDS011;65671;49.976;20.038;2023-07-13T00:06:20;8.30;;;6.43;;
76745;SDS011;65671;49.976;20.038;2023-07-13T00:08:46;8.55;;;6.07;;
76745;SDS011;65671;49.976;20.038;2023-07-13T00:11:13;7.85;;;6.93;;
76745;SDS011;65671;49.976;20.038;2023-07-13T00:13:40;8.63;;;6.50;;
76745;SDS011;65671;49.976;20.038;2023-07-13T00:16:07;9.88;;;6.22;;
76745;SDS011;65671;49.976;20.038;2023-07-13T00:18:33;9.20;;;6.15;;
76745;SDS011;65671;49.976;20.038;2023-07-13T00:20:59;8.45;;;5.45;;
76745;SDS011;65671;49.976;20.038;2023-07-13T00:23:36;9.13;;;6.13;;
76745;SDS011;65671;49.976;20.038;2023-07-13T00:26:04;8.38;;;6.50;;
76745;SDS011;65671;49.976;20.038;2023-07-13T00:28:31;9.73;;;6.63;;
76745;SDS011;65671;49.976;20.038;2023-07-13T00:30:57;9.18;;;6.43;;
76745;SDS011;65671;49.976;20.038;2023-07-13T00:33:23;9.23;;;6.15;;
76745;SDS011;65671;49.976;20.038;2023-07-13T00:35:49;9.05;;;5.82;;
76745;SDS011;65671;49.976;20.038;2023-07-13T00:38:15;8.23;;;5.50;;
76745;SDS011;65671;49.976;20.038;2023-07-13T00:40:41;8.18;;;5.80;;
76745;SDS011;65671;49.976;20.038;2023-07-13T00:43:14;10.20;;;7.63;;
76745;SDS011;65671;49.976;20.038;2023-07-13T00:48:11;7.05;;;6.00;;
76745;SDS011;65671;49.976;20.038;2023-07-13T00:50:39;11.50;;;6.38;;
76745;SDS011;65671;49.976;20.038;2023-07-13T00:53:06;9.02;;;6.18;;
76745;SDS011;65671;49.976;20.038;2023-07-13T00:55:33;9.35;;;5.85;;
76745;SDS011;65671;49.976;20.038;2023-07-13T00:58:00;9.15;;;6.25;;
76745;SDS011;65671;49.976;20.038;2023-07-13T01:00:27;8.27;;;5.57;;
76745;SDS011;65671;49.976;20.038;2023-07-13T01:02:54;8.60;;;6.22;;
76745;SDS011;65671;49.976;20.038;2023-07-13T01:05:21;8.73;;;6.55;;
76745;SDS011;65671;49.976;20.038;2023-07-13T01:07:48;8.13;;;6.18;;
76745;SDS011;65671;49.976;20.038;2023-07-13T01:10:17;7.03;;;5.85;;
76745;SDS011;65671;49.976;20.038;2023-07-13T01:12:45;9.38;;;5.90;;
76745;SDS011;65671;49.976;20.038;2023-07-13T01:18:16;10.25;;;6.93;;
76745;SDS011;65671;49.976;20.038;2023-07-13T01:23:25;8.00;;;6.25;;
76745;SDS011;65671;49.976;20.038;2023-07-13T01:25:51;8.00;;;5.50;;
76745;SDS011;65671;49.976;20.038;2023-07-13T01:28:17;9.27;;;6.45;;
76745;SDS011;65671;49.976;20.038;2023-07-13T01:30:44;8.32;;;5.50;;
76745;SDS011;65671;49.976;20.038;2023-07-13T01:33:15;7.30;;;5.25;;
76745;SDS011;65671;49.976;20.038;2023-07-13T01:35:42;8.65;;;5.78;;
76745;SDS011;65671;49.976;20.038;2023-07-13T01:38:08;7.80;;;4.90;;
76745;SDS011;65671;49.976;20.038;2023-07-13T01:40:35;8.95;;;6.18;;
76745;SDS011;65671;49.976;20.038;2023-07-13T01:43:01;12.02;;;6.55;;
76745;SDS011;65671;49.976;20.038;2023-07-13T01:45:27;11.27;;;5.63;;
76745;SDS011;65671;49.976;20.038;2023-07-13T01:47:53;7.75;;;5.72;;
76745;SDS011;65671;49.976;20.038;2023-07-13T01:50:19;7.57;;;5.78;;
76745;SDS011;65671;49.976;20.038;2023-07-13T01:52:45;8.32;;;5.40;;
76745;SDS011;65671;49.976;20.038;2023-07-13T01:55:10;7.90;;;5.80;;
76745;SDS011;65671;49.976;20.038;2023-07-13T01:57:36;10.07;;;5.43;;
76745;SDS011;65671;49.976;20.038;2023-07-13T02:00:05;7.93;;;5.47;;
76745;SDS011;65671;49.976;20.038;2023-07-13T02:02:32;7.68;;;5.22;;
76745;SDS011;65671;49.976;20.038;2023-07-13T02:04:58;7.38;;;5.38;;
76745;SDS011;65671;49.976;20.038;2023-07-13T02:07:23;8.02;;;5.25;;
76745;SDS011;65671;49.976;20.038;2023-07-13T02:12:36;7.13;;;5.25;;
76745;SDS011;65671;49.976;20.038;2023-07-13T02:15:03;6.95;;;6.18;;
76745;SDS011;65671;49.976;20.038;2023-07-13T02:17:30;11.02;;;5.40;;
76745;SDS011;65671;49.976;20.038;2023-07-13T02:19:55;10.25;;;6.40;;
76745;SDS011;65671;49.976;20.038;2023-07-13T02:22:21;7.68;;;5.05;;
76745;SDS011;65671;49.976;20.038;2023-07-13T02:24:47;8.57;;;5.40;;
76745;SDS011;65671;49.976;20.038;2023-07-13T02:27:12;7.97;;;5.50;;
76745;SDS011;65671;49.976;20.038;2023-07-13T02:29:38;7.22;;;5.57;;
76745;SDS011;65671;49.976;20.038;2023-07-13T02:32:03;7.85;;;5.95;;
76745;SDS011;65671;49.976;20.038;2023-07-13T02:34:29;6.38;;;5.40;;
76745;SDS011;65671;49.976;20.038;2023-07-13T02:36:55;8.38;;;5.82;;
76745;SDS011;65671;49.976;20.038;2023-07-13T02:39:20;9.27;;;6.47;;
76745;SDS011;65671;49.976;20.038;2023-07-13T02:41:46;9.55;;;5.68;;
76745;SDS011;65671;49.976;20.038;2023-07-13T02:44:15;8.23;;;5.72;;
76745;SDS011;65671;49.976;20.038;2023-07-13T02:46:41;8.07;;;5.53;;
76745;SDS011;65671;49.976;20.038;2023-07-13T02:49:06;6.47;;;4.93;;
76745;SDS011;65671;49.976;20.038;2023-07-13T02:51:32;8.20;;;5.15;;
76745;SDS011;65671;49.976;20.038;2023-07-13T02:53:59;8.98;;;5.22;;
76745;SDS011;65671;49.976;20.038;2023-07-13T02:56:26;7.25;;;4.97;;
76745;SDS011;65671;49.976;20.038;2023-07-13T02:58:53;7.43;;;5.00;;
76745;SDS011;65671;49.976;20.038;2023-07-13T03:01:19;6.28;;;4.93;;
76745;SDS011;65671;49.976;20.038;2023-07-13T03:03:46;6.75;;;4.55;;
76745;SDS011;65671;49.976;20.038;2023-07-13T03:06:11;10.50;;;5.20;;
76745;SDS011;65671;49.976;20.038;2023-07-13T03:08:38;10.40;;;4.95;;
76745;SDS011;65671;49.976;20.038;2023-07-13T03:11:06;5.95;;;5.15;;
76745;SDS011;65671;49.976;20.038;2023-07-13T03:13:36;8.93;;;5.00;;
76745;SDS011;65671;49.976;20.038;2023-07-13T03:16:02;6.95;;;4.82;;
76745;SDS011;65671;49.976;20.038;2023-07-13T03:18:28;9.50;;;6.30;;
76745;SDS011;65671;49.976;20.038;2023-07-13T03:20:54;6.57;;;4.90;;
76745;SDS011;65671;49.976;20.038;2023-07-13T03:23:20;8.70;;;5.00;;
76745;SDS011;65671;49.976;20.038;2023-07-13T03:25:47;8.30;;;5.22;;
76745;SDS011;65671;49.976;20.038;2023-07-13T03:28:13;7.10;;;5.10;;
76745;SDS011;65671;49.976;20.038;2023-07-13T03:30:40;6.55;;;4.68;;
76745;SDS011;65671;49.976;20.038;2023-07-13T03:33:06;8.68;;;4.82;;
76745;SDS011;65671;49.976;20.038;2023-07-13T03:35:32;7.70;;;4.80;;
76745;SDS011;65671;49.976;20.038;2023-07-13T03:38:00;9.32;;;5.50;;
76745;SDS011;65671;49.976;20.038;2023-07-13T03:40:27;8.75;;;5.10;;
76745;SDS011;65671;49.976;20.038;2023-07-13T03:42:53;5.70;;;4.35;;
76745;SDS011;65671;49.976;20.038;2023-07-13T03:45:19;6.15;;;5.18;;
76745;SDS011;65671;49.976;20.038;2023-07-13T03:47:45;9.10;;;5.13;;
76745;SDS011;65671;49.976;20.038;2023-07-13T03:50:10;9.38;;;5.35;;
76745;SDS011;65671;49.976;20.038;2023-07-13T03:52:36;7.22;;;4.70;;
76745;SDS011;65671;49.976;20.038;2023-07-13T03:55:02;5.50;;;4.28;;
76745;SDS011;65671;49.976;20.038;2023-07-13T03:57:27;6.40;;;4.60;;
76745;SDS011;65671;49.976;20.038;2023-07-13T03:59:53;6.47;;;4.63;;
76745;SDS011;65671;49.976;20.038;2023-07-13T04:02:18;5.45;;;4.63;;
76745;SDS011;65671;49.976;20.038;2023-07-13T04:04:44;6.35;;;4.40;;
76745;SDS011;65671;49.976;20.038;2023-07-13T04:07:09;5.97;;;4.50;;
76745;SDS011;65671;49.976;20.038;2023-07-13T04:09:35;6.05;;;4.60;;
76745;SDS011;65671;49.976;20.038;2023-07-13T04:12:01;7.43;;;4.47;;
76745;SDS011;65671;49.976;20.038;2023-07-13T04:14:27;7.40;;;4.55;;
76745;SDS011;65671;49.976;20.038;2023-07-13T04:16:52;5.25;;;4.25;;
76745;SDS011;65671;49.976;20.038;2023-07-13T04:19:19;6.18;;;4.53;;
76745;SDS011;65671;49.976;20.038;2023-07-13T04:21:45;7.85;;;4.88;;
76745;SDS011;65671;49.976;20.038;2023-07-13T04:24:11;6.25;;;4.05;;
76745;SDS011;65671;49.976;20.038;2023-07-13T04:26:37;6.50;;;4.47;;
76745;SDS011;65671;49.976;20.038;2023-07-13T04:29:03;6.63;;;3.92;;
76745;SDS011;65671;49.976;20.038;2023-07-13T04:31:30;6.22;;;4.03;;
76745;SDS011;65671;49.976;20.038;2023-07-13T04:33:56;5.82;;;3.72;;
76745;SDS011;65671;49.976;20.038;2023-07-13T04:36:22;6.15;;;3.97;;
76745;SDS011;65671;49.976;20.038;2023-07-13T04:38:48;6.32;;;4.65;;
76745;SDS011;65671;49.976;20.038;2023-07-13T04:41:14;6.78;;;4.13;;
76745;SDS011;65671;49.976;20.038;2023-07-13T04:43:40;5.90;;;4.20;;
76745;SDS011;65671;49.976;20.038;2023-07-13T04:46:07;8.23;;;4.03;;
76745;SDS011;65671;49.976;20.038;2023-07-13T04:48:36;5.97;;;4.05;;
76745;SDS011;65671;49.976;20.038;2023-07-13T04:51:02;5.72;;;4.43;;
76745;SDS011;65671;49.976;20.038;2023-07-13T04:53:28;6.80;;;4.20;;
76745;SDS011;65671;49.976;20.038;2023-07-13T04:55:54;6.05;;;4.40;;
76745;SDS011;65671;49.976;20.038;2023-07-13T04:58:20;6.57;;;3.85;;
76745;SDS011;65671;49.976;20.038;2023-07-13T05:00:46;6.15;;;4.10;;
76745;SDS011;65671;49.976;20.038;2023-07-13T05:03:12;6.53;;;4.20;;
76745;SDS011;65671;49.976;20.038;2023-07-13T05:05:38;5.43;;;4.10;;
76745;SDS011;65671;49.976;20.038;2023-07-13T05:08:03;4.78;;;3.75;;
76745;SDS011;65671;49.976;20.038;2023-07-13T05:10:29;5.25;;;4.07;;
76745;SDS011;65671;49.976;20.038;2023-07-13T05:12:54;6.38;;;3.88;;
76745;SDS011;65671;49.976;20.038;2023-07-13T05:15:23;4.30;;;3.50;;
76745;SDS011;65671;49.976;20.038;2023-07-13T05:17:49;6.10;;;4.10;;
76745;SDS011;65671;49.976;20.038;2023-07-13T05:20:15;5.65;;;3.70;;
76745;SDS011;65671;49.976;20.038;2023-07-13T05:22:42;5.78;;;3.75;;
76745;SDS011;65671;49.976;20.038;2023-07-13T05:25:08;5.63;;;3.65;;
76745;SDS011;65671;49.976;20.038;2023-07-13T05:27:34;5.03;;;3.47;;
76745;SDS011;65671;49.976;20.038;2023-07-13T05:30:02;6.03;;;3.95;;
76745;SDS011;65671;49.976;20.038;2023-07-13T05:32:28;5.47;;;4.13;;
76745;SDS011;65671;49.976;20.038;2023-07-13T05:34:54;5.82;;;3.97;;
76745;SDS011;65671;49.976;20.038;2023-07-13T05:37:19;8.63;;;4.15;;
76745;SDS011;65671;49.976;20.038;2023-07-13T05:39:45;7.32;;;5.00;;
76745;SDS011;65671;49.976;20.038;2023-07-13T05:42:10;7.57;;;4.63;;
76745;SDS011;65671;49.976;20.038;2023-07-13T05:44:36;7.28;;;4.28;;
76745;SDS011;65671;49.976;20.038;2023-07-13T05:47:01;7.03;;;4.40;;
76745;SDS011;65671;49.976;20.038;2023-07-13T05:49:27;7.55;;;4.55;;
76745;SDS011;65671;49.976;20.038;2023-07-13T05:51:54;6.78;;;4.03;;
76745;SDS011;65671;49.976;20.038;2023-07-13T05:54:19;6.10;;;4.50;;
76745;SDS011;65671;49.976;20.038;2023-07-13T05:56:45;5.97;;;4.00;;
76745;SDS011;65671;49.976;20.038;2023-07-13T05:59:10;9.88;;;4.75;;
76745;SDS011;65671;49.976;20.038;2023-07-13T06:01:37;6.95;;;4.28;;
76745;SDS011;65671;49.976;20.038;2023-07-13T06:04:02;5.47;;;4.05;;
76745;SDS011;65671;49.976;20.038;2023-07-13T06:06:28;7.38;;;3.85;;
76745;SDS011;65671;49.976;20.038;2023-07-13T06:08:54;6.18;;;3.90;;
76745;SDS011;65671;49.976;20.038;2023-07-13T06:11:21;6.18;;;4.13;;
76745;SDS011;65671;49.976;20.038;2023-07-13T06:13:48;6.13;;;4.03;;
76745;SDS011;65671;49.976;20.038;2023-07-13T06:16:14;7.03;;;4.55;;
76745;SDS011;65671;49.976;20.038;2023-07-13T06:18:40;5.60;;;4.05;;
76745;SDS011;65671;49.976;20.038;2023-07-13T06:21:10;8.82;;;4.60;;
76745;SDS011;65671;49.976;20.038;2023-07-13T06:23:47;7.03;;;4.63;;
76745;SDS011;65671;49.976;20.038;2023-07-13T06:26:14;9.85;;;4.70;;
76745;SDS011;65671;49.976;20.038;2023-07-13T06:28:39;6.18;;;4.28;;
76745;SDS011;65671;49.976;20.038;2023-07-13T06:31:09;8.32;;;4.75;;
76745;SDS011;65671;49.976;20.038;2023-07-13T06:33:36;6.60;;;4.68;;
76745;SDS011;65671;49.976;20.038;2023-07-13T06:36:03;5.63;;;4.60;;
76745;SDS011;65671;49.976;20.038;2023-07-13T06:38:30;8.27;;;4.82;;
76745;SDS011;65671;49.976;20.038;2023-07-13T06:40:56;6.32;;;4.55;;
76745;SDS011;65671;49.976;20.038;2023-07-13T06:43:22;8.13;;;5.47;;
76745;SDS011;65671;49.976;20.038;2023-07-13T06:45:49;5.85;;;4.47;;
76745;SDS011;65671;49.976;20.038;2023-07-13T06:48:16;6.72;;;5.05;;
76745;SDS011;65671;49.976;20.038;2023-07-13T06:50:43;7.47;;;4.72;;
76745;SDS011;65671;49.976;20.038;2023-07-13T06:53:09;9.93;;;5.43;;
76745;SDS011;65671;49.976;20.038;2023-07-13T06:55:36;5.82;;;5.13;;
76745;SDS011;65671;49.976;20.038;2023-07-13T06:58:02;8.05;;;4.65;;
76745;SDS011;65671;49.976;20.038;2023-07-13T07:00:27;7.28;;;6.00;;
76745;SDS011;65671;49.976;20.038;2023-07-13T07:02:53;6.72;;;5.60;;
76745;SDS011;65671;49.976;20.038;2023-07-13T07:05:19;8.13;;;5.55;;
76745;SDS011;65671;49.976;20.038;2023-07-13T07:07:47;7.07;;;4.90;;
76745;SDS011;65671;49.976;20.038;2023-07-13T07:10:16;6.72;;;5.28;;
76745;SDS011;65671;49.976;20.038;2023-07-13T07:12:41;8.88;;;5.53;;
76745;SDS011;65671;49.976;20.038;2023-07-13T07:15:07;7.68;;;5.15;;
76745;SDS011;65671;49.976;20.038;2023-07-13T07:17:33;6.45;;;5.25;;
76745;SDS011;65671;49.976;20.038;2023-07-13T07:19:58;12.75;;;5.50;;
76745;SDS011;65671;49.976;20.038;2023-07-13T07:22:24;11.50;;;5.65;;
76745;SDS011;65671;49.976;20.038;2023-07-13T07:24:52;8.15;;;5.05;;
76745;SDS011;65671;49.976;20.038;2023-07-13T07:27:21;6.75;;;4.55;;
76745;SDS011;65671;49.976;20.038;2023-07-13T07:29:46;7.00;;;4.90;;
76745;SDS011;65671;49.976;20.038;2023-07-13T07:32:12;6.80;;;5.15;;
76745;SDS011;65671;49.976;20.038;2023-07-13T07:34:37;7.40;;;4.97;;
76745;SDS011;65671;49.976;20.038;2023-07-13T07:37:03;5.50;;;4.90;;
76745;SDS011;65671;49.976;20.038;2023-07-13T07:39:29;7.80;;;4.78;;
76745;SDS011;65671;49.976;20.038;2023-07-13T07:41:55;8.02;;;5.25;;
76745;SDS011;65671;49.976;20.038;2023-07-13T07:44:20;7.70;;;5.50;;
76745;SDS011;65671;49.976;20.038;2023-07-13T07:46:46;8.15;;;5.63;;
76745;SDS011;65671;49.976;20.038;2023-07-13T07:49:12;9.68;;;5.70;;
76745;SDS011;65671;49.976;20.038;2023-07-13T07:51:38;7.85;;;5.28;;
76745;SDS011;65671;49.976;20.038;2023-07-13T07:54:04;8.57;;;5.85;;
76745;SDS011;65671;49.976;20.038;2023-07-13T07:56:30;16.83;;;6.30;;
76745;SDS011;65671;49.976;20.038;2023-07-13T07:58:59;9.43;;;6.45;;
76745;SDS011;65671;49.976;20.038;2023-07-13T08:01:27;10.40;;;5.90;;
76745;SDS011;65671;49.976;20.038;2023-07-13T08:03:53;10.13;;;5.95;;
76745;SDS011;65671;49.976;20.038;2023-07-13T08:06:18;8.43;;;6.07;;
76745;SDS011;65671;49.976;20.038;2023-07-13T08:08:45;10.43;;;6.32;;
76745;SDS011;65671;49.976;20.038;2023-07-13T08:11:11;9.32;;;7.00;;
76745;SDS011;65671;49.976;20.038;2023-07-13T08:13:37;10.52;;;6.82;;
76745;SDS011;65671;49.976;20.038;2023-07-13T08:16:04;11.00;;;7.75;;
76745;SDS011;65671;49.976;20.038;2023-07-13T08:18:31;10.00;;;6.85;;
76745;SDS011;65671;49.976;20.038;2023-07-13T08:20:58;9.38;;;5.95;;
76745;SDS011;65671;49.976;20.038;2023-07-13T08:23:28;8.20;;;5.88;;
76745;SDS011;65671;49.976;20.038;2023-07-13T08:25:54;7.72;;;5.70;;
76745;SDS011;65671;49.976;20.038;2023-07-13T08:28:20;8.50;;;5.80;;
76745;SDS011;65671;49.976;20.038;2023-07-13T08:30:49;10.65;;;6.10;;
76745;SDS011;65671;49.976;20.038;2023-07-13T08:33:17;11.70;;;6.40;;
76745;SDS011;65671;49.976;20.038;2023-07-13T08:35:47;8.32;;;5.70;;
76745;SDS011;65671;49.976;20.038;2023-07-13T08:38:13;8.63;;;6.28;;
76745;SDS011;65671;49.976;20.038;2023-07-13T08:40:39;10.88;;;6.20;;
76745;SDS011;65671;49.976;20.038;2023-07-13T08:43:07;7.18;;;5.28;;
76745;SDS011;65671;49.976;20.038;2023-07-13T08:45:47;9.27;;;5.38;;
76745;SDS011;65671;49.976;20.038;2023-07-13T08:51:02;8.55;;;5.50;;
76745;SDS011;65671;49.976;20.038;2023-07-13T08:53:39;11.55;;;6.57;;
76745;SDS011;65671;49.976;20.038;2023-07-13T08:56:16;9.02;;;5.43;;
76745;SDS011;65671;49.976;20.038;2023-07-13T08:58:44;10.73;;;6.30;;
76745;SDS011;65671;49.976;20.038;2023-07-13T09:01:20;6.82;;;6.10;;
76745;SDS011;65671;49.976;20.038;2023-07-13T09:03:57;7.43;;;5.38;;
76745;SDS011;65671;49.976;20.038;2023-07-13T09:14:58;7.90;;;5.32;;
76745;SDS011;65671;49.976;20.038;2023-07-13T09:17:27;6.88;;;4.68;;
76745;SDS011;65671;49.976;20.038;2023-07-13T09:20:41;6.10;;;5.30;;
76745;SDS011;65671;49.976;20.038;2023-07-13T09:22:49;6.78;;;4.47;;
76745;SDS011;65671;49.976;20.038;2023-07-13T09:25:27;5.85;;;5.20;;
76745;SDS011;65671;49.976;20.038;2023-07-13T09:27:56;12.32;;;5.00;;
76745;SDS011;65671;49.976;20.038;2023-07-13T09:30:36;5.85;;;4.40;;
76745;SDS011;65671;49.976;20.038;2023-07-13T09:33:23;6.53;;;5.18;;
76745;SDS011;65671;49.976;20.038;2023-07-13T09:35:48;12.23;;;5.38;;
76745;SDS011;65671;49.976;20.038;2023-07-13T09:38:18;7.03;;;4.30;;
76745;SDS011;65671;49.976;20.038;2023-07-13T09:41:03;6.82;;;4.07;;
76745;SDS011;65671;49.976;20.038;2023-07-13T09:43:39;6.82;;;3.92;;
76745;SDS011;65671;49.976;20.038;2023-07-13T09:46:27;6.28;;;4.50;;
76745;SDS011;65671;49.976;20.038;2023-07-13T09:48:52;8.43;;;4.25;;
76745;SDS011;65671;49.976;20.038;2023-07-13T09:51:20;5.53;;;3.97;;
76745;SDS011;65671;49.976;20.038;2023-07-13T09:53:46;6.63;;;4.30;;
76745;SDS011;65671;49.976;20.038;2023-07-13T09:56:22;8.25;;;4.65;;
76745;SDS011;65671;49.976;20.038;2023-07-13T09:58:54;8.57;;;4.05;;
76745;SDS011;65671;49.976;20.038;2023-07-13T10:04:10;7.07;;;4.72;;
76745;SDS011;65671;49.976;20.038;2023-07-13T10:06:40;5.90;;;3.70;;
76745;SDS011;65671;49.976;20.038;2023-07-13T10:09:08;4.78;;;4.22;;
76745;SDS011;65671;49.976;20.038;2023-07-13T10:11:35;7.35;;;4.70;;
76745;SDS011;65671;49.976;20.038;2023-07-13T10:14:13;6.70;;;4.93;;
76745;SDS011;65671;49.976;20.038;2023-07-13T10:16:42;7.85;;;5.13;;
76745;SDS011;65671;49.976;20.038;2023-07-13T10:21:55;7.53;;;4.50;;
76745;SDS011;65671;49.976;20.038;2023-07-13T10:27:12;7.25;;;5.25;;
76745;SDS011;65671;49.976;20.038;2023-07-13T10:29:44;8.68;;;4.80;;
76745;SDS011;65671;49.976;20.038;2023-07-13T10:32:13;7.65;;;4.90;;
76745;SDS011;65671;49.976;20.038;2023-07-13T10:34:43;7.85;;;5.13;;
76745;SDS011;65671;49.976;20.038;2023-07-13T10:37:16;8.88;;;4.40;;
76745;SDS011;65671;49.976;20.038;2023-07-13T10:39:50;7.32;;;4.00;;
76745;SDS011;65671;49.976;20.038;2023-07-13T10:42:25;9.32;;;5.28;;
76745;SDS011;65671;49.976;20.038;2023-07-13T10:44:55;7.78;;;4.70;;
76745;SDS011;65671;49.976;20.038;2023-07-13T10:47:21;9.95;;;4.75;;
76745;SDS011;65671;49.976;20.038;2023-07-13T10:49:47;6.03;;;4.00;;
76745;SDS011;65671;49.976;20.038;2023-07-13T10:55:10;13.40;;;4.80;;
76745;SDS011;65671;49.976;20.038;2023-07-13T10:58:31;8.30;;;4.13;;
76745;SDS011;65671;49.976;20.038;2023-07-13T11:03:45;7.03;;;3.70;;
76745;SDS011;65671;49.976;20.038;2023-07-13T11:18:52;3.35;;;2.05;;
76745;SDS011;65671;49.976;20.038;2023-07-13T11:21:32;4.88;;;2.40;;
76745;SDS011;65671;49.976;20.038;2023-07-13T11:24:33;8.73;;;3.67;;
76745;SDS011;65671;49.976;20.038;2023-07-13T11:26:53;11.40;;;4.05;;
76745;SDS011;65671;49.976;20.038;2023-07-13T11:31:57;7.40;;;2.90;;
76745;SDS011;65671;49.976;20.038;2023-07-13T11:34:36;5.82;;;2.47;;
76745;SDS011;65671;49.976;20.038;2023-07-13T11:37:08;5.30;;;2.50;;
76745;SDS011;65671;49.976;20.038;2023-07-13T11:39:40;7.78;;;2.20;;
76745;SDS011;65671;49.976;20.038;2023-07-13T11:42:10;5.53;;;2.50;;
76745;SDS011;65671;49.976;20.038;2023-07-13T11:44:42;6.88;;;2.78;;
76745;SDS011;65671;49.976;20.038;2023-07-13T11:50:31;8.85;;;3.28;;
76745;SDS011;65671;49.976;20.038;2023-07-13T11:52:57;9.68;;;4.00;;
76745;SDS011;65671;49.976;20.038;2023-07-13T11:55:23;5.10;;;3.30;;
76745;SDS011;65671;49.976;20.038;2023-07-13T11:57:59;6.85;;;3.67;;
76745;SDS011;65671;49.976;20.038;2023-07-13T12:00:28;7.65;;;4.18;;
76745;SDS011;65671;49.976;20.038;2023-07-13T12:02:57;4.32;;;2.92;;
76745;SDS011;65671;49.976;20.038;2023-07-13T12:05:25;4.68;;;2.85;;
76745;SDS011;65671;49.976;20.038;2023-07-13T12:07:51;5.07;;;3.30;;
76745;SDS011;65671;49.976;20.038;2023-07-13T12:10:29;5.93;;;3.35;;
76745;SDS011;65671;49.976;20.038;2023-07-13T12:13:01;6.50;;;3.63;;
76745;SDS011;65671;49.976;20.038;2023-07-13T12:18:00;5.53;;;3.42;;
76745;SDS011;65671;49.976;20.038;2023-07-13T12:20:29;6.70;;;3.63;;
76745;SDS011;65671;49.976;20.038;2023-07-13T12:23:01;5.72;;;3.55;;
76745;SDS011;65671;49.976;20.038;2023-07-13T12:25:30;4.55;;;2.90;;
76745;SDS011;65671;49.976;20.038;2023-07-13T12:27:56;5.85;;;3.25;;
76745;SDS011;65671;49.976;20.038;2023-07-13T12:30:23;5.82;;;3.10;;
76745;SDS011;65671;49.976;20.038;2023-07-13T12:32:59;4.15;;;2.63;;
76745;SDS011;65671;49.976;20.038;2023-07-13T12:35:42;5.65;;;3.03;;
76745;SDS011;65671;49.976;20.038;2023-07-13T12:38:12;5.05;;;3.13;;
76745;SDS011;65671;49.976;20.038;2023-07-13T12:40:38;4.80;;;2.90;;
76745;SDS011;65671;49.976;20.038;2023-07-13T12:43:09;5.40;;;2.65;;
76745;SDS011;65671;49.976;20.038;2023-07-13T12:45:37;3.92;;;2.78;;
76745;SDS011;65671;49.976;20.038;2023-07-13T12:48:05;3.95;;;2.40;;
76745;SDS011;65671;49.976;20.038;2023-07-13T12:50:42;5.15;;;2.95;;
76745;SDS011;65671;49.976;20.038;2023-07-13T12:53:14;5.00;;;3.00;;
76745;SDS011;65671;49.976;20.038;2023-07-13T12:55:53;4.95;;;2.70;;
76745;SDS011;65671;49.976;20.038;2023-07-13T12:58:28;4.57;;;3.80;;
76745;SDS011;65671;49.976;20.038;2023-07-13T13:00:57;6.55;;;2.83;;
76745;SDS011;65671;49.976;20.038;2023-07-13T13:03:29;3.65;;;2.80;;
76745;SDS011;65671;49.976;20.038;2023-07-13T13:06:02;4.45;;;2.83;;
76745;SDS011;65671;49.976;20.038;2023-07-13T13:08:45;4.68;;;2.45;;
76745;SDS011;65671;49.976;20.038;2023-07-13T13:11:17;4.28;;;2.20;;
76745;SDS011;65671;49.976;20.038;2023-07-13T13:13:43;5.18;;;2.70;;
76745;SDS011;65671;49.976;20.038;2023-07-13T13:16:20;5.53;;;2.70;;
76745;SDS011;65671;49.976;20.038;2023-07-13T13:18:51;4.00;;;2.72;;
76745;SDS011;65671;49.976;20.038;2023-07-13T13:21:18;4.47;;;2.90;;
76745;SDS011;65671;49.976;20.038;2023-07-13T13:23:45;4.30;;;2.90;;
76745;SDS011;65671;49.976;20.038;2023-07-13T13:26:12;3.83;;;2.85;;
76745;SDS011;65671;49.976;20.038;2023-07-13T13:28:40;5.35;;;3.03;;
76745;SDS011;65671;49.976;20.038;2023-07-13T13:31:09;4.53;;;2.95;;
76745;SDS011;65671;49.976;20.038;2023-07-13T13:33:38;5.20;;;2.88;;
76745;SDS011;65671;49.976;20.038;2023-07-13T13:38:48;2.78;;;2.30;;
76745;SDS011;65671;49.976;20.038;2023-07-13T13:41:14;5.00;;;2.30;;
76745;SDS011;65671;49.976;20.038;2023-07-13T13:43:41;5.15;;;2.53;;
76745;SDS011;65671;49.976;20.038;2023-07-13T13:46:15;4.93;;;3.42;;
76745;SDS011;65671;49.976;20.038;2023-07-13T13:48:44;5.93;;;2.38;;
76745;SDS011;65671;49.976;20.038;2023-07-13T13:51:17;3.60;;;2.40;;
76745;SDS011;65671;49.976;20.038;2023-07-13T13:53:44;4.78;;;2.92;;
76745;SDS011;65671;49.976;20.038;2023-07-13T13:56:11;5.10;;;3.05;;
76745;SDS011;65671;49.976;20.038;2023-07-13T13:58:38;3.75;;;2.53;;
76745;SDS011;65671;49.976;20.038;2023-07-13T14:01:04;4.75;;;2.65;;
76745;SDS011;65671;49.976;20.038;2023-07-13T14:03:33;3.70;;;2.78;;
76745;SDS011;65671;49.976;20.038;2023-07-13T14:05:59;3.45;;;2.47;;
76745;SDS011;65671;49.976;20.038;2023-07-13T14:08:25;4.13;;;2.42;;
76745;SDS011;65671;49.976;20.038;2023-07-13T14:10:51;3.15;;;2.40;;
76745;SDS011;65671;49.976;20.038;2023-07-13T14:15:47;3.97;;;2.47;;
76745;SDS011;65671;49.976;20.038;2023-07-13T14:18:13;8.70;;;3.53;;
76745;SDS011;65671;49.976;20.038;2023-07-13T14:20:43;4.05;;;2.63;;
76745;SDS011;65671;49.976;20.038;2023-07-13T14:23:14;6.55;;;2.35;;
76745;SDS011;65671;49.976;20.038;2023-07-13T14:25:40;3.63;;;2.63;;
76745;SDS011;65671;49.976;20.038;2023-07-13T14:28:28;3.88;;;2.58;;
76745;SDS011;65671;49.976;20.038;2023-07-13T14:30:53;3.72;;;3.08;;
76745;SDS011;65671;49.976;20.038;2023-07-13T14:33:22;6.35;;;2.83;;
76745;SDS011;65671;49.976;20.038;2023-07-13T14:35:49;3.85;;;2.70;;
76745;SDS011;65671;49.976;20.038;2023-07-13T14:38:16;3.85;;;2.47;;
76745;SDS011;65671;49.976;20.038;2023-07-13T14:40:45;3.95;;;2.63;;
76745;SDS011;65671;49.976;20.038;2023-07-13T14:43:11;4.40;;;2.90;;
76745;SDS011;65671;49.976;20.038;2023-07-13T14:45:43;3.80;;;3.00;;
76745;SDS011;65671;49.976;20.038;2023-07-13T14:48:15;5.43;;;3.03;;
76745;SDS011;65671;49.976;20.038;2023-07-13T14:50:44;4.78;;;2.85;;
76745;SDS011;65671;49.976;20.038;2023-07-13T14:53:11;3.65;;;2.80;;
76745;SDS011;65671;49.976;20.038;2023-07-13T14:55:38;5.80;;;2.78;;
76745;SDS011;65671;49.976;20.038;2023-07-13T14:58:04;3.28;;;2.53;;
76745;SDS011;65671;49.976;20.038;2023-07-13T15:00:29;3.95;;;2.92;;
76745;SDS011;65671;49.976;20.038;2023-07-13T15:02:56;4.22;;;2.55;;
76745;SDS011;65671;49.976;20.038;2023-07-13T15:05:27;5.85;;;2.70;;
76745;SDS011;65671;49.976;20.038;2023-07-13T15:07:56;8.15;;;5.80;;
76745;SDS011;65671;49.976;20.038;2023-07-13T15:10:25;4.32;;;2.95;;
76745;SDS011;65671;49.976;20.038;2023-07-13T15:12:52;3.70;;;3.00;;
76745;SDS011;65671;49.976;20.038;2023-07-13T15:15:21;4.93;;;2.92;;
76745;SDS011;65671;49.976;20.038;2023-07-13T15:17:47;7.00;;;4.05;;
76745;SDS011;65671;49.976;20.038;2023-07-13T15:22:48;5.05;;;3.42;;
76745;SDS011;65671;49.976;20.038;2023-07-13T15:25:16;4.85;;;3.97;;
76745;SDS011;65671;49.976;20.038;2023-07-13T15:27:47;4.07;;;3.65;;
76745;SDS011;65671;49.976;20.038;2023-07-13T15:30:13;4.13;;;3.55;;
76745;SDS011;65671;49.976;20.038;2023-07-13T15:32:41;6.68;;;3.80;;
76745;SDS011;65671;49.976;20.038;2023-07-13T15:35:15;6.28;;;4.55;;
76745;SDS011;65671;49.976;20.038;2023-07-13T15:37:43;5.93;;;4.68;;
76745;SDS011;65671;49.976;20.038;2023-07-13T15:40:09;5.70;;;4.75;;
76745;SDS011;65671;49.976;20.038;2023-07-13T15:42:35;5.93;;;4.50;;
76745;SDS011;65671;49.976;20.038;2023-07-13T15:45:25;5.80;;;3.95;;